createdAt,value
2018-10-16T00:01:39.435Z,20.37
2018-10-16T00:04:09.158Z,20.97
2018-10-16T00:06:38.820Z,22.83
2018-10-16T00:09:09.902Z,21.77
2018-10-16T00:11:43.937Z,21.57
2018-10-16T00:14:13.621Z,21.10
2018-10-16T00:16:43.281Z,21.00
2018-10-16T00:19:12.849Z,21.07
2018-10-16T00:21:42.511Z,21.43
2018-10-16T00:24:12.059Z,20.40
2018-10-16T00:26:41.661Z,20.87
2018-10-16T00:29:11.281Z,20.47
2018-10-16T00:31:40.985Z,19.50
2018-10-16T00:34:10.647Z,20.53
2018-10-16T00:36:40.352Z,20.57
2018-10-16T00:39:15.943Z,21.17
2018-10-16T00:41:49.639Z,20.20
2018-10-16T00:44:19.237Z,20.87
2018-10-16T00:46:49.071Z,20.33
2018-10-16T00:49:18.761Z,19.17
2018-10-16T00:51:48.422Z,19.00
2018-10-16T00:54:18.041Z,19.80
2018-10-16T00:56:47.685Z,20.20
2018-10-16T00:59:17.307Z,19.43
2018-10-16T01:01:46.924Z,19.93
2018-10-16T01:04:16.553Z,19.93
2018-10-16T01:06:46.145Z,21.13
2018-10-16T01:09:15.760Z,19.53
2018-10-16T01:11:45.411Z,19.47
2018-10-16T01:14:15.029Z,18.13
2018-10-16T01:16:44.624Z,18.83
2018-10-16T01:19:14.266Z,19.27
2018-10-16T01:21:43.893Z,19.80
2018-10-16T01:24:13.694Z,18.87
2018-10-16T01:26:43.448Z,19.30
2018-10-16T01:29:13.076Z,19.13
2018-10-16T01:31:42.706Z,19.10
2018-10-16T01:34:12.362Z,18.57
2018-10-16T01:36:41.975Z,19.00
2018-10-16T01:39:11.562Z,18.33
2018-10-16T01:41:41.344Z,18.20
2018-10-16T01:44:10.911Z,18.90
2018-10-16T01:46:40.467Z,17.77
2018-10-16T01:49:10.101Z,17.70
2018-10-16T01:51:39.731Z,18.23
2018-10-16T01:54:09.377Z,17.27
2018-10-16T01:56:39.176Z,17.73
2018-10-16T01:59:08.779Z,17.83
2018-10-16T02:01:38.466Z,19.20
2018-10-16T02:04:08.277Z,18.07
2018-10-16T02:06:37.917Z,17.93
2018-10-16T02:09:10.290Z,16.83
2018-10-16T02:11:40.183Z,18.20
2018-10-16T02:14:10.325Z,18.03
2018-10-16T02:16:39.965Z,17.87
2018-10-16T02:19:09.591Z,17.13
2018-10-16T02:21:39.236Z,17.23
2018-10-16T02:24:09.189Z,17.63
2018-10-16T02:26:38.839Z,18.07
2018-10-16T02:29:08.460Z,17.60
2018-10-16T02:31:38.149Z,18.47
2018-10-16T02:34:07.823Z,17.10
2018-10-16T02:36:37.498Z,17.97
2018-10-16T02:39:09.260Z,18.73
2018-10-16T02:41:38.985Z,17.33
2018-10-16T02:44:09.512Z,17.77
2018-10-16T02:46:39.130Z,18.33
2018-10-16T02:49:08.852Z,17.10
2018-10-16T02:51:38.458Z,17.83
2018-10-16T02:54:08.232Z,16.93
2018-10-16T02:56:37.833Z,18.00
2018-10-16T02:59:07.454Z,18.10
2018-10-16T03:01:37.040Z,17.47
2018-10-16T03:04:06.734Z,18.80
2018-10-16T03:06:36.358Z,18.87
2018-10-16T03:09:07.871Z,21.63
2018-10-16T03:11:37.552Z,21.13
2018-10-16T03:14:07.469Z,19.90
2018-10-16T03:16:37.672Z,19.07
2018-10-16T03:19:07.299Z,19.90
2018-10-16T03:21:37.029Z,21.27
2018-10-16T03:24:08.017Z,20.70
2018-10-16T03:26:38.058Z,20.97
2018-10-16T03:29:08.165Z,20.03
2018-10-16T03:31:37.894Z,19.60
2018-10-16T03:34:08.207Z,20.50
2018-10-16T03:36:38.425Z,19.23
2018-10-16T03:39:10.950Z,18.70
2018-10-16T03:41:40.707Z,18.13
2018-10-16T03:44:12.422Z,18.70
2018-10-16T03:46:42.209Z,18.47
2018-10-16T03:49:12.574Z,18.03
2018-10-16T03:51:42.545Z,18.73
2018-10-16T03:54:12.477Z,18.17
2018-10-16T03:56:42.809Z,17.60
2018-10-16T03:59:12.584Z,17.77
2018-10-16T04:01:42.237Z,18.57
2018-10-16T04:04:15.103Z,17.33
2018-10-16T04:06:44.725Z,19.17
2018-10-16T04:09:14.406Z,18.70
2018-10-16T04:11:44.946Z,18.57
2018-10-16T04:14:14.687Z,18.87
2018-10-16T04:16:44.361Z,18.73
2018-10-16T04:19:13.929Z,18.03
2018-10-16T04:21:46.583Z,17.70
2018-10-16T04:24:16.495Z,19.00
2018-10-16T04:26:46.161Z,17.90
2018-10-16T04:29:17.362Z,20.20
2018-10-16T04:31:47.381Z,20.63
2018-10-16T04:34:16.967Z,21.67
2018-10-16T04:36:46.584Z,20.83
2018-10-16T04:39:16.256Z,21.57
2018-10-16T04:41:46.584Z,22.37
2018-10-16T04:44:16.349Z,20.47
2018-10-16T04:46:46.855Z,20.90
2018-10-16T04:49:17.886Z,21.67
2018-10-16T04:51:49.631Z,20.83
2018-10-16T04:54:19.589Z,21.73
2018-10-16T04:56:49.210Z,20.87
2018-10-16T04:59:18.813Z,21.27
2018-10-16T05:01:48.384Z,21.03
2018-10-16T05:04:18.035Z,19.63
2018-10-16T05:06:47.606Z,19.73
2018-10-16T05:09:17.270Z,19.73
2018-10-16T05:11:50.765Z,19.43
2018-10-16T05:14:20.460Z,18.83
2018-10-16T05:16:50.135Z,19.27
2018-10-16T05:19:19.892Z,18.70
2018-10-16T05:21:49.634Z,19.07
2018-10-16T05:24:19.318Z,19.17
2018-10-16T05:26:49.156Z,18.57
2018-10-16T05:29:18.999Z,18.57
2018-10-16T05:31:48.619Z,19.73
2018-10-16T05:34:18.297Z,18.77
2018-10-16T05:36:47.842Z,18.03
2018-10-16T05:39:17.531Z,19.83
2018-10-16T05:41:47.150Z,18.43
2018-10-16T05:44:16.786Z,17.50
2018-10-16T05:46:46.359Z,18.90
2018-10-16T05:49:15.971Z,17.30
2018-10-16T05:51:45.687Z,16.93
2018-10-16T05:54:15.410Z,17.63
2018-10-16T05:56:45.062Z,17.30
2018-10-16T05:59:14.660Z,16.83
2018-10-16T06:01:44.404Z,18.00
2018-10-16T06:04:14.021Z,17.63
2018-10-16T06:06:43.627Z,16.30
2018-10-16T06:09:13.311Z,17.27
2018-10-16T06:11:42.953Z,17.30
2018-10-16T06:14:12.576Z,17.40
2018-10-16T06:16:42.224Z,17.73
2018-10-16T06:19:11.785Z,18.50
2018-10-16T06:21:41.361Z,17.87
2018-10-16T06:24:11.267Z,17.93
2018-10-16T06:26:40.837Z,18.23
2018-10-16T06:29:10.480Z,17.53
2018-10-16T06:31:40.291Z,19.03
2018-10-16T06:34:10.044Z,19.13
2018-10-16T06:36:39.711Z,18.20
2018-10-16T06:39:11.272Z,18.40
2018-10-16T06:41:41.120Z,17.20
2018-10-16T06:44:10.725Z,17.77
2018-10-16T06:46:40.521Z,18.90
2018-10-16T06:49:10.106Z,18.13
2018-10-16T06:51:39.797Z,18.97
2018-10-16T06:54:09.592Z,19.90
2018-10-16T06:56:39.240Z,18.13
2018-10-16T06:59:08.902Z,17.67
2018-10-16T07:01:38.521Z,18.90
2018-10-16T07:04:08.255Z,17.90
2018-10-16T07:06:38.242Z,17.93
2018-10-16T07:09:09.185Z,18.77
2018-10-16T07:11:40.367Z,17.90
2018-10-16T07:14:11.876Z,18.83
2018-10-16T07:16:41.680Z,18.80
2018-10-16T07:19:11.559Z,18.73
2018-10-16T07:21:41.880Z,19.27
2018-10-16T07:24:11.561Z,18.53
2018-10-16T07:26:41.103Z,19.07
2018-10-16T07:29:10.703Z,18.63
2018-10-16T07:31:40.360Z,18.97
2018-10-16T07:34:10.141Z,17.70
2018-10-16T07:36:39.731Z,18.20
2018-10-16T07:39:13.199Z,19.70
2018-10-16T07:41:43.213Z,22.47
2018-10-16T07:44:12.764Z,23.07
2018-10-16T07:46:42.308Z,22.47
2018-10-16T07:49:11.924Z,20.27
2018-10-16T07:51:41.509Z,19.73
2018-10-16T07:54:11.127Z,19.20
2018-10-16T07:56:40.730Z,18.63
2018-10-16T07:59:10.284Z,18.15
2018-10-16T08:01:39.960Z,18.00
2018-10-16T08:04:09.607Z,17.10
2018-10-16T08:06:39.385Z,17.07
2018-10-16T08:09:14.021Z,18.20
2018-10-16T08:11:44.648Z,17.60
2018-10-16T08:14:15.196Z,17.77
2018-10-16T08:17:48.185Z,16.37
2018-10-16T08:20:18.329Z,18.47
2018-10-16T08:22:48.611Z,16.93
2018-10-16T08:25:18.941Z,17.07
2018-10-16T08:27:50.232Z,16.83
2018-10-16T08:30:20.527Z,16.50
2018-10-16T08:32:50.907Z,17.35
2018-10-16T08:35:21.288Z,16.60
2018-10-16T08:40:04.083Z,14.73
2018-10-16T08:42:50.585Z,14.43
2018-10-16T08:45:31.242Z,14.77
2018-10-16T08:48:11.961Z,14.77
2018-10-16T08:50:52.471Z,14.67
2018-10-16T08:53:22.748Z,14.30
2018-10-16T08:55:52.991Z,15.13
2018-10-16T08:58:23.322Z,16.15
2018-10-16T09:00:53.731Z,15.53
2018-10-16T09:03:24.075Z,16.33
2018-10-16T09:05:54.400Z,15.97
2018-10-16T09:08:24.779Z,15.20
2018-10-16T09:10:55.117Z,15.57
2018-10-16T09:13:25.526Z,14.77
2018-10-16T09:15:55.926Z,15.23
2018-10-16T09:18:26.472Z,15.17
2018-10-16T09:20:57.382Z,15.13
2018-10-16T09:23:27.767Z,14.83
2018-10-16T09:25:58.118Z,15.20
2018-10-16T09:28:28.661Z,14.97
2018-10-16T09:30:59.183Z,15.00
2018-10-16T09:33:29.588Z,15.27
2018-10-16T09:35:59.999Z,15.47
2018-10-16T09:38:30.324Z,16.50
2018-10-16T09:41:00.745Z,16.57
2018-10-16T09:43:31.089Z,16.23
2018-10-16T09:46:01.446Z,16.43
2018-10-16T09:48:31.843Z,16.95
2018-10-16T09:51:02.544Z,15.53
2018-10-16T09:53:32.862Z,15.93
2018-10-16T09:56:03.233Z,16.70
2018-10-16T09:58:33.519Z,16.03
2018-10-16T10:02:12.508Z,16.30
2018-10-16T10:04:42.790Z,16.75
2018-10-16T10:07:13.074Z,16.52
2018-10-16T10:09:43.376Z,15.23
2018-10-16T10:12:13.815Z,15.13
2018-10-16T10:14:44.130Z,14.47
2018-10-16T10:17:14.539Z,16.25
2018-10-16T10:19:44.857Z,15.40
2018-10-16T10:22:15.245Z,14.60
2018-10-16T10:24:45.571Z,13.97
2018-10-16T10:27:15.964Z,14.28
2018-10-16T10:29:46.492Z,13.87
2018-10-16T10:32:16.746Z,14.03
2018-10-16T10:34:46.991Z,13.47
2018-10-16T10:37:17.298Z,14.40
2018-10-16T10:39:47.547Z,12.80
2018-10-16T10:42:18.048Z,15.00
2018-10-16T10:44:48.527Z,15.07
2018-10-16T10:47:18.890Z,15.33
2018-10-16T10:49:49.214Z,15.35
2018-10-16T10:52:19.666Z,13.87
2018-10-16T10:54:50.125Z,15.27
2018-10-16T10:57:20.555Z,15.30
2018-10-16T10:59:50.896Z,14.80
2018-10-16T11:02:21.254Z,15.03
2018-10-16T11:04:51.547Z,14.43
2018-10-16T11:07:21.964Z,14.40
2018-10-16T11:09:53.071Z,13.43
2018-10-16T11:12:23.317Z,14.87
2018-10-16T11:14:53.698Z,13.40
2018-10-16T11:20:31.005Z,13.78
2018-10-16T11:23:01.839Z,14.47
2018-10-16T11:25:39.129Z,13.50
2018-10-16T11:28:09.937Z,13.05
2018-10-16T11:30:40.924Z,11.80
2018-10-16T11:33:11.406Z,13.22
2018-10-16T11:35:43.922Z,14.53
2018-10-16T11:38:14.445Z,13.77
2018-10-16T11:40:48.720Z,14.80
2018-10-16T11:43:19.926Z,13.17
2018-10-16T11:45:51.684Z,14.40
2018-10-16T11:48:21.938Z,13.85
2018-10-16T11:50:52.596Z,14.07
2018-10-16T11:53:27.513Z,13.70
2018-10-16T11:55:58.971Z,13.03
2018-10-16T11:58:30.118Z,14.43
2018-10-16T12:01:02.068Z,14.07
2018-10-16T12:03:33.951Z,13.60
2018-10-16T12:06:07.052Z,14.53
2018-10-16T12:08:39.933Z,13.57
2018-10-16T12:11:10.160Z,14.40
2018-10-16T12:13:41.333Z,13.87
2018-10-16T12:16:11.401Z,15.13
2018-10-16T12:18:45.709Z,14.65
2018-10-16T12:21:18.136Z,14.40
2018-10-16T12:23:47.828Z,14.40
2018-10-16T12:26:18.352Z,13.73
2018-10-16T12:28:48.152Z,14.13
2018-10-16T12:31:17.775Z,13.00
2018-10-16T12:33:47.414Z,13.97
2018-10-16T12:36:17.064Z,12.63
2018-10-16T12:38:46.631Z,13.62
2018-10-16T12:41:16.319Z,13.00
2018-10-16T12:43:45.912Z,12.67
2018-10-16T12:46:15.583Z,12.43
2018-10-16T12:48:45.124Z,14.63
2018-10-16T12:51:14.859Z,15.55
2018-10-16T12:53:44.683Z,14.77
2018-10-16T12:56:14.738Z,16.17
2018-10-16T12:58:44.851Z,14.03
2018-10-16T13:01:15.015Z,14.80
2018-10-16T13:03:44.892Z,15.03
2018-10-16T13:06:15.003Z,13.93
2018-10-16T13:08:45.335Z,14.57
2018-10-16T13:11:15.699Z,12.93
2018-10-16T13:13:45.940Z,11.77
2018-10-16T13:16:16.279Z,12.40
2018-10-16T13:18:46.805Z,13.00
2018-10-16T13:21:17.277Z,14.80
2018-10-16T13:23:47.986Z,14.40
2018-10-16T13:26:18.274Z,14.33
2018-10-16T13:28:56.274Z,14.77
2018-10-16T13:31:27.321Z,12.90
2018-10-16T13:33:58.224Z,15.13
2018-10-16T13:36:28.914Z,14.83
2018-10-16T13:38:59.476Z,14.30
2018-10-16T13:41:29.937Z,15.15
2018-10-16T13:44:00.779Z,15.80
2018-10-16T13:46:31.197Z,15.67
2018-10-16T13:49:01.674Z,14.63
2018-10-16T13:51:32.072Z,15.37
2018-10-16T13:54:02.464Z,16.02
2018-10-16T13:56:32.839Z,16.93
2018-10-16T13:59:03.484Z,14.67
2018-10-16T14:01:33.913Z,15.37
2018-10-16T14:04:04.348Z,17.17
2018-10-16T14:06:34.688Z,16.17
2018-10-16T14:09:06.982Z,14.93
2018-10-16T14:11:38.692Z,15.37
2018-10-16T14:14:09.211Z,15.65
2018-10-16T14:16:40.374Z,14.70
2018-10-16T14:19:11.244Z,15.50
2018-10-16T14:21:41.980Z,16.53
2018-10-16T14:24:12.402Z,15.13
2018-10-16T14:26:42.857Z,14.00
2018-10-16T14:29:13.223Z,13.70
2018-10-16T14:31:43.697Z,14.43
2018-10-16T14:34:14.755Z,14.17
2018-10-16T14:36:45.266Z,15.07
2018-10-16T14:39:16.163Z,12.73
2018-10-16T14:41:48.666Z,12.73
2018-10-16T14:44:21.434Z,12.77
2018-10-16T14:46:51.791Z,12.43
2018-10-16T14:49:22.215Z,11.90
2018-10-16T14:51:52.828Z,12.00
2018-10-16T14:54:23.166Z,12.57
2018-10-16T14:56:53.623Z,12.83
2018-10-16T14:59:24.089Z,12.90
2018-10-16T15:01:55.316Z,13.17
2018-10-16T15:04:26.921Z,12.17
2018-10-16T15:06:59.326Z,12.10
2018-10-16T15:09:30.523Z,12.33
2018-10-16T15:12:00.914Z,13.40
2018-10-16T15:14:31.283Z,13.17
2018-10-16T15:17:01.661Z,13.67
2018-10-16T15:19:32.059Z,14.43
2018-10-16T15:22:02.415Z,15.43
2018-10-16T15:24:32.594Z,14.37
2018-10-16T15:27:02.677Z,14.43
2018-10-16T15:29:32.833Z,14.43
2018-10-16T15:32:03.194Z,15.37
2018-10-16T15:34:33.480Z,15.67
2018-10-16T15:37:03.813Z,16.43
2018-10-16T15:39:34.199Z,16.87
2018-10-16T15:42:04.686Z,17.07
2018-10-16T15:44:35.030Z,18.07
2018-10-16T15:47:05.581Z,18.33
2018-10-16T15:49:36.261Z,18.40
2018-10-16T15:52:07.044Z,18.63
2018-10-16T15:54:37.363Z,18.63
2018-10-16T15:57:07.836Z,18.50
2018-10-16T15:59:38.101Z,18.67
2018-10-16T16:02:08.587Z,18.03
2018-10-16T16:04:38.877Z,19.50
2018-10-16T16:07:09.276Z,19.60
2018-10-16T16:09:39.753Z,18.67
2018-10-16T16:12:10.278Z,19.27
2018-10-16T16:14:40.556Z,18.80
2018-10-16T16:17:10.944Z,20.60
2018-10-16T16:19:41.305Z,20.10
2018-10-16T16:22:11.924Z,19.40
2018-10-16T16:24:42.109Z,20.07
2018-10-16T16:27:12.354Z,20.20
2018-10-16T16:29:42.592Z,20.13
2018-10-16T16:32:13.227Z,19.57
2018-10-16T16:34:43.450Z,20.67
2018-10-16T16:37:13.953Z,21.80
2018-10-16T16:39:44.276Z,23.23
2018-10-16T16:42:14.560Z,22.10
2018-10-16T16:44:44.786Z,25.47
2018-10-16T16:47:14.951Z,26.33
2018-10-16T16:49:45.150Z,26.77
2018-10-16T16:52:15.182Z,25.13
2018-10-16T16:54:45.390Z,25.13
2018-10-16T16:57:15.691Z,25.27
2018-10-16T16:59:46.120Z,26.77
2018-10-16T17:02:16.503Z,27.50
2018-10-16T17:04:46.979Z,28.30
2018-10-16T17:07:17.514Z,25.93
2018-10-16T17:09:47.919Z,23.43
2018-10-16T17:12:18.349Z,22.70
2018-10-16T17:14:48.811Z,32.13
2018-10-16T17:17:20.896Z,33.60
2018-10-16T17:19:51.349Z,28.50
2018-10-16T17:22:25.924Z,25.43
2018-10-16T17:24:57.597Z,21.90
2018-10-16T17:27:28.196Z,22.80
2018-10-16T17:29:58.690Z,22.37
2018-10-16T17:32:29.215Z,23.40
2018-10-16T17:35:00.520Z,23.50
2018-10-16T17:37:30.966Z,22.80
2018-10-16T17:40:01.468Z,23.10
2018-10-16T17:42:31.901Z,24.10
2018-10-16T17:45:02.372Z,22.40
2018-10-16T17:47:32.978Z,21.43
2018-10-16T17:50:09.902Z,22.40
2018-10-16T17:52:44.204Z,22.80
2018-10-16T17:55:15.460Z,22.43
2018-10-16T17:57:45.927Z,21.73
2018-10-16T18:00:18.398Z,20.80
2018-10-16T18:02:49.026Z,21.37
2018-10-16T18:05:20.060Z,21.37
2018-10-16T18:07:50.564Z,23.17
2018-10-16T18:10:22.173Z,25.27
2018-10-16T18:12:52.706Z,25.87
2018-10-16T18:15:23.378Z,29.93
2018-10-16T18:17:54.414Z,32.83
2018-10-16T18:20:25.402Z,33.87
2018-10-16T18:22:55.878Z,34.57
2018-10-16T18:25:26.301Z,35.17
2018-10-16T18:27:56.722Z,37.27
2018-10-16T18:30:28.095Z,38.10
2018-10-16T18:32:58.626Z,36.30
2018-10-16T18:35:30.088Z,34.20
2018-10-16T18:38:00.532Z,33.17
2018-10-16T18:40:31.166Z,31.47
2018-10-16T18:43:01.598Z,28.03
2018-10-16T18:45:32.056Z,27.23
2018-10-16T18:48:02.585Z,26.37
2018-10-16T18:50:33.010Z,27.00
2018-10-16T18:53:03.472Z,26.33
2018-10-16T18:55:33.938Z,25.93
2018-10-16T18:58:04.360Z,25.97
2018-10-16T19:00:34.766Z,25.30
2018-10-16T19:03:05.245Z,23.47
2018-10-16T19:05:36.292Z,25.57
2018-10-16T19:08:08.086Z,24.80
2018-10-16T19:10:38.491Z,23.33
2018-10-16T19:13:09.031Z,22.97
2018-10-16T19:15:39.496Z,24.23
2018-10-16T19:18:10.956Z,22.93
2018-10-16T19:20:41.345Z,21.90
2018-10-16T19:23:11.821Z,22.63
2018-10-16T19:25:42.801Z,22.70
2018-10-16T19:28:13.762Z,23.60
2018-10-16T19:30:44.140Z,22.07
2018-10-16T19:33:14.718Z,22.90
2018-10-16T19:35:45.061Z,22.37
2018-10-16T19:38:15.503Z,22.40
2018-10-16T19:40:45.924Z,22.63
2018-10-16T19:43:16.337Z,23.57
2018-10-16T19:45:46.804Z,23.20
2018-10-16T19:48:17.220Z,22.53
2018-10-16T19:50:47.616Z,26.20
2018-10-16T19:53:18.064Z,25.63
2018-10-16T19:55:49.365Z,24.13
2018-10-16T19:58:20.126Z,23.27
2018-10-16T20:00:50.451Z,22.07
2018-10-16T20:03:20.885Z,21.27
2018-10-16T20:05:51.297Z,21.43
2018-10-16T20:08:21.641Z,21.07
2018-10-16T20:10:52.004Z,20.77
2018-10-16T20:13:22.395Z,20.60
2018-10-16T20:15:52.786Z,19.93
2018-10-16T20:18:23.116Z,21.13
2018-10-16T20:20:53.504Z,20.93
2018-10-16T20:23:23.885Z,20.53
2018-10-16T20:25:54.337Z,20.80
2018-10-16T20:28:24.766Z,20.73
2018-10-16T20:30:55.269Z,20.40
2018-10-16T20:33:25.743Z,19.67
2018-10-16T20:35:56.064Z,20.10
2018-10-16T20:38:26.483Z,20.20
2018-10-16T20:40:56.849Z,20.83
2018-10-16T20:43:27.251Z,19.80
2018-10-16T20:45:57.652Z,19.33
2018-10-16T20:48:28.010Z,19.57
2018-10-16T20:50:59.387Z,19.67
2018-10-16T20:53:30.428Z,19.77
2018-10-16T20:56:00.684Z,20.90
2018-10-16T20:58:31.170Z,21.43
2018-10-16T21:01:01.939Z,21.63
2018-10-16T21:03:32.305Z,20.63
2018-10-16T21:06:02.688Z,21.53
2018-10-16T21:08:32.926Z,20.73
2018-10-16T21:11:03.283Z,20.53
2018-10-16T21:13:33.516Z,20.00
2018-10-16T21:16:03.690Z,20.23
2018-10-16T21:18:33.961Z,19.77
2018-10-16T21:21:04.140Z,19.70
2018-10-16T21:23:34.192Z,19.83
2018-10-16T21:26:04.132Z,20.17
2018-10-16T21:28:34.108Z,19.00
2018-10-16T21:31:04.013Z,18.47
2018-10-16T21:33:33.631Z,18.77
2018-10-16T21:36:03.251Z,18.57
2018-10-16T21:38:32.814Z,17.63
2018-10-16T21:41:02.400Z,18.07
2018-10-16T21:43:31.982Z,18.43
2018-10-16T21:46:01.537Z,18.00
2018-10-16T21:48:31.139Z,18.20
2018-10-16T21:51:00.696Z,17.13
2018-10-16T21:53:30.263Z,18.17
2018-10-16T21:55:59.817Z,17.40
2018-10-16T21:58:29.455Z,17.33
2018-10-16T22:01:04.100Z,17.77
2018-10-16T22:03:33.633Z,17.13
2018-10-16T22:06:03.160Z,17.13
2018-10-16T22:08:32.763Z,17.03
2018-10-16T22:11:02.327Z,16.97
2018-10-16T22:13:31.851Z,16.87
2018-10-16T22:16:01.451Z,17.43
2018-10-16T22:18:31.017Z,17.93
2018-10-16T22:21:00.614Z,17.23
2018-10-16T22:23:30.175Z,17.07
2018-10-16T22:25:59.680Z,17.13
2018-10-16T22:28:29.223Z,17.20
2018-10-16T22:30:58.869Z,17.23
2018-10-16T22:33:28.410Z,17.80
2018-10-16T22:35:57.979Z,18.03
2018-10-16T22:38:27.500Z,17.80
2018-10-16T22:40:57.046Z,17.00
2018-10-16T22:43:26.783Z,16.67
2018-10-16T22:45:56.263Z,17.17
2018-10-16T22:48:25.762Z,17.03
2018-10-16T22:50:55.305Z,16.93
2018-10-16T22:53:24.858Z,16.40
2018-10-16T22:55:54.428Z,17.23
2018-10-16T22:58:23.996Z,17.13
2018-10-16T23:00:53.591Z,17.47
2018-10-16T23:03:23.124Z,16.83
2018-10-16T23:05:52.655Z,16.93
2018-10-16T23:08:22.190Z,17.23
2018-10-16T23:10:51.756Z,17.17
2018-10-16T23:13:21.278Z,17.13
2018-10-16T23:15:50.836Z,17.20
2018-10-16T23:18:20.452Z,17.33
2018-10-16T23:20:50.039Z,18.13
2018-10-16T23:23:19.576Z,18.33
2018-10-16T23:25:49.145Z,17.77
2018-10-16T23:28:18.712Z,17.00
2018-10-16T23:30:48.334Z,17.30
2018-10-16T23:33:17.921Z,19.63
2018-10-16T23:35:47.480Z,18.60
2018-10-16T23:38:17.088Z,16.53
2018-10-16T23:40:46.676Z,17.80
2018-10-16T23:43:16.303Z,16.40
2018-10-16T23:45:45.938Z,16.87
2018-10-16T23:48:15.572Z,16.93
2018-10-16T23:50:45.176Z,17.60
2018-10-16T23:53:14.873Z,17.03
2018-10-16T23:55:44.376Z,16.33
2018-10-16T23:58:13.990Z,17.37
